This is the latest recevied weather packets stored in our database for station/object OE3EMC-13. If no packets are shown the sender has not sent any weather packets the latest 10 day(s).
| Time | Temp. | Humidity | Pressure | Rain* | Wind** | Luminosity | Snow |
|---|---|---|---|---|---|---|---|
| 1776959593 | 18.33° C | 28% | 1100 hPa | 0 mm | - | - | - |
| 1776958991 | 18.33° C | 28% | 1100 hPa | 0 mm | - | - | - |
| 1776958391 | 18.33° C | 29% | 1100 hPa | 0 mm | - | - | - |
| 1776957792 | 18.33° C | 29% | 1100 hPa | 0 mm | - | - | - |
| 1776957191 | 16.67° C | 30% | 1100 hPa | 0 mm | - | - | - |
| 1776956590 | 16.67° C | 30% | 1100 hPa | 0 mm | - | - | - |
| 1776955992 | 16.67° C | 29% | 1100 hPa | 0 mm | - | - | - |
| 1776955390 | 16.67° C | 29% | 1100 hPa | 0 mm | - | - | - |
| 1776954790 | 17.22° C | 29% | 1100 hPa | 0 mm | - | - | - |
| 1776954192 | 17.22° C | 29% | 1100 hPa | 0 mm | - | - | - |
| 1776953590 | 16.67° C | 30% | 1100 hPa | 0 mm | - | - | - |
| 1776952991 | 16.67° C | 30% | 1100 hPa | 0 mm | - | - | - |
| 1776952389 | 17.22° C | 28% | 1100 hPa | 0 mm | - | - | - |
| 1776951789 | 17.22° C | 28% | 1100 hPa | 0 mm | - | - | - |
| 1776951196 | 16.11° C | 27% | 1100 hPa | 0 mm | - | - | - |
| 1776950595 | 16.11° C | 27% | 1100 hPa | 0 mm | - | - | - |
| 1776949994 | 17.78° C | 26% | 1100 hPa | 0 mm | - | - | - |
| 1776949394 | 17.78° C | 26% | 1100 hPa | 0 mm | - | - | - |
| 1776948794 | 16.67° C | 29% | 1100 hPa | 0 mm | - | - | - |
| 1776948195 | 16.67° C | 29% | 1100 hPa | 0 mm | - | - | - |
| 1776947593 | 17.22° C | 26% | 1100 hPa | 0 mm | - | - | - |
| 1776946994 | 17.22° C | 26% | 1100 hPa | 0 mm | - | - | - |
| 1776946395 | 17.22° C | 27% | 1100 hPa | 0 mm | - | - | - |
| 1776945794 | 17.22° C | 27% | 1100 hPa | 0 mm | - | - | - |
| 1776945193 | 16.67° C | 30% | 1100 hPa | 0 mm | - | - | - |
* Rain latest hour (hover to see other rain measurements)
** Current wind speed in m/s (hover to see current wind gust speed)